sensor_id;sensor_type;location;lat;lon;timestamp;pressure;altitude;pressure_sealevel;temperature;humidity
46223;BME280;31943;51.410;7.564;2023-02-28T00:00:38;101677.41;;;0.94;61.16
46223;BME280;31943;51.410;7.564;2023-02-28T00:03:04;101673.19;;;0.94;61.40
46223;BME280;31943;51.410;7.564;2023-02-28T00:05:30;101676.53;;;0.93;61.58
46223;BME280;31943;51.410;7.564;2023-02-28T00:07:56;101678.31;;;0.94;61.44
46223;BME280;31943;51.410;7.564;2023-02-28T00:10:24;101676.63;;;0.95;61.81
46223;BME280;31943;51.410;7.564;2023-02-28T00:12:51;101673.94;;;0.93;61.67
46223;BME280;31943;51.410;7.564;2023-02-28T00:15:18;101677.19;;;0.91;61.94
46223;BME280;31943;51.410;7.564;2023-02-28T00:17:44;101678.09;;;0.91;61.84
46223;BME280;31943;51.410;7.564;2023-02-28T00:20:12;101678.97;;;0.92;61.94
46223;BME280;31943;51.410;7.564;2023-02-28T00:22:40;101675.31;;;0.88;61.84
46223;BME280;31943;51.410;7.564;2023-02-28T00:25:07;101676.09;;;0.87;62.13
46223;BME280;31943;51.410;7.564;2023-02-28T00:27:33;101670.94;;;0.87;61.95
46223;BME280;31943;51.410;7.564;2023-02-28T00:29:59;101671.72;;;0.86;62.16
46223;BME280;31943;51.410;7.564;2023-02-28T00:32:26;101672.41;;;0.84;61.93
46223;BME280;31943;51.410;7.564;2023-02-28T00:34:53;101672.97;;;0.79;62.08
46223;BME280;31943;51.410;7.564;2023-02-28T00:37:19;101671.84;;;0.76;62.16
46223;BME280;31943;51.410;7.564;2023-02-28T00:39:45;101676.09;;;0.75;62.13
46223;BME280;31943;51.410;7.564;2023-02-28T00:42:10;101669.16;;;0.74;62.31
46223;BME280;31943;51.410;7.564;2023-02-28T00:44:36;101669.84;;;0.72;62.06
46223;BME280;31943;51.410;7.564;2023-02-28T00:47:01;101667.81;;;0.68;62.06
46223;BME280;31943;51.410;7.564;2023-02-28T00:49:28;101665.69;;;0.62;62.05
46223;BME280;31943;51.410;7.564;2023-02-28T00:51:54;101663.00;;;0.61;62.04
46223;BME280;31943;51.410;7.564;2023-02-28T00:54:20;101666.38;;;0.59;61.95
46223;BME280;31943;51.410;7.564;2023-02-28T00:56:46;101672.19;;;0.57;62.01
46223;BME280;31943;51.410;7.564;2023-02-28T00:59:13;101672.72;;;0.53;61.93
46223;BME280;31943;51.410;7.564;2023-02-28T01:01:38;101668.81;;;0.46;61.84
46223;BME280;31943;51.410;7.564;2023-02-28T01:04:04;101666.69;;;0.41;61.81
46223;BME280;31943;51.410;7.564;2023-02-28T01:06:32;101679.66;;;0.42;61.81
46223;BME280;31943;51.410;7.564;2023-02-28T01:08:57;101665.56;;;0.37;61.37
46223;BME280;31943;51.410;7.564;2023-02-28T01:11:23;101674.06;;;0.36;61.56
46223;BME280;31943;51.410;7.564;2023-02-28T01:13:49;101653.41;;;0.34;61.71
46223;BME280;31943;51.410;7.564;2023-02-28T01:16:15;101665.25;;;0.32;61.58
46223;BME280;31943;51.410;7.564;2023-02-28T01:18:41;101668.50;;;0.30;61.69
46223;BME280;31943;51.410;7.564;2023-02-28T01:21:08;101663.13;;;0.27;61.49
46223;BME280;31943;51.410;7.564;2023-02-28T01:23:36;101668.13;;;0.25;61.54
46223;BME280;31943;51.410;7.564;2023-02-28T01:26:04;101664.44;;;0.22;61.48
46223;BME280;31943;51.410;7.564;2023-02-28T01:28:31;101661.78;;;0.20;61.52
46223;BME280;31943;51.410;7.564;2023-02-28T01:30:56;101663.22;;;0.16;61.58
46223;BME280;31943;51.410;7.564;2023-02-28T01:33:26;101669.03;;;0.14;61.64
46223;BME280;31943;51.410;7.564;2023-02-28T01:35:57;101669.03;;;0.14;61.85
46223;BME280;31943;51.410;7.564;2023-02-28T01:38:23;101665.47;;;0.12;61.89
46223;BME280;31943;51.410;7.564;2023-02-28T01:40:51;101661.97;;;0.11;61.54
46223;BME280;31943;51.410;7.564;2023-02-28T01:43:21;101654.81;;;0.07;61.66
46223;BME280;31943;51.410;7.564;2023-02-28T01:45:47;101653.81;;;0.05;61.43
46223;BME280;31943;51.410;7.564;2023-02-28T01:48:13;101657.94;;;0.03;61.67
46223;BME280;31943;51.410;7.564;2023-02-28T01:50:41;101650.03;;;0.00;61.37
46223;BME280;31943;51.410;7.564;2023-02-28T01:53:11;101653.13;;;-0.04;61.37
46223;BME280;31943;51.410;7.564;2023-02-28T01:55:39;101648.53;;;-0.08;61.38
46223;BME280;31943;51.410;7.564;2023-02-28T01:58:08;101650.09;;;-0.10;61.38
46223;BME280;31943;51.410;7.564;2023-02-28T02:00:34;101650.09;;;-0.10;61.63
46223;BME280;31943;51.410;7.564;2023-02-28T02:03:06;101640.75;;;-0.10;61.62
46223;BME280;31943;51.410;7.564;2023-02-28T02:05:34;101647.41;;;-0.12;61.45
46223;BME280;31943;51.410;7.564;2023-02-28T02:08:07;101649.63;;;-0.16;61.68
46223;BME280;31943;51.410;7.564;2023-02-28T02:10:36;101652.75;;;-0.21;61.71
46223;BME280;31943;51.410;7.564;2023-02-28T02:13:24;101648.41;;;-0.22;61.55
46223;BME280;31943;51.410;7.564;2023-02-28T02:16:02;101650.84;;;-0.23;61.58
46223;BME280;31943;51.410;7.564;2023-02-28T02:18:36;101649.06;;;-0.24;61.69
46223;BME280;31943;51.410;7.564;2023-02-28T02:21:18;101635.09;;;-0.28;61.57
46223;BME280;31943;51.410;7.564;2023-02-28T02:24:17;101640.22;;;-0.28;61.69
46223;BME280;31943;51.410;7.564;2023-02-28T02:27:01;101636.78;;;-0.28;62.15
46223;BME280;31943;51.410;7.564;2023-02-28T02:33:08;101638.09;;;-0.33;61.85
46223;BME280;31943;51.410;7.564;2023-02-28T02:35:43;101640.31;;;-0.38;61.64
46223;BME280;31943;51.410;7.564;2023-02-28T02:38:18;101640.41;;;-0.48;61.74
46223;BME280;31943;51.410;7.564;2023-02-28T02:40:51;101629.88;;;-0.51;62.08
46223;BME280;31943;51.410;7.564;2023-02-28T02:43:22;101635.94;;;-0.51;62.07
46223;BME280;31943;51.410;7.564;2023-02-28T02:45:53;101643.50;;;-0.52;61.86
46223;BME280;31943;51.410;7.564;2023-02-28T02:48:25;101640.69;;;-0.55;61.97
46223;BME280;31943;51.410;7.564;2023-02-28T02:50:57;101648.25;;;-0.57;61.72
46223;BME280;31943;51.410;7.564;2023-02-28T02:53:27;101639.47;;;-0.61;61.82
46223;BME280;31943;51.410;7.564;2023-02-28T02:55:55;101642.56;;;-0.65;61.76
46223;BME280;31943;51.410;7.564;2023-02-28T02:58:26;101638.88;;;-0.68;61.48
46223;BME280;31943;51.410;7.564;2023-02-28T03:00:57;101640.41;;;-0.70;61.70
46223;BME280;31943;51.410;7.564;2023-02-28T03:03:24;101650.69;;;-0.70;61.79
46223;BME280;31943;51.410;7.564;2023-02-28T03:05:50;101645.28;;;-0.73;61.71
46223;BME280;31943;51.410;7.564;2023-02-28T03:08:17;101651.09;;;-0.76;61.86
46223;BME280;31943;51.410;7.564;2023-02-28T03:10:44;101651.84;;;-0.77;61.90
46223;BME280;31943;51.410;7.564;2023-02-28T03:13:36;101646.97;;;-0.74;62.03
46223;BME280;31943;51.410;7.564;2023-02-28T03:16:34;101650.28;;;-0.75;62.12
46223;BME280;31943;51.410;7.564;2023-02-28T03:19:21;101648.66;;;-0.74;62.23
46223;BME280;31943;51.410;7.564;2023-02-28T03:21:58;101650.19;;;-0.76;62.06
46223;BME280;31943;51.410;7.564;2023-02-28T03:24:33;101640.59;;;-0.79;62.13
46223;BME280;31943;51.410;7.564;2023-02-28T03:27:07;101639.69;;;-0.80;61.96
46223;BME280;31943;51.410;7.564;2023-02-28T03:29:37;101637.00;;;-0.81;62.27
46223;BME280;31943;51.410;7.564;2023-02-28T03:32:10;101640.47;;;-0.81;62.20
46223;BME280;31943;51.410;7.564;2023-02-28T03:34:41;101637.13;;;-0.80;62.20
46223;BME280;31943;51.410;7.564;2023-02-28T03:37:10;101642.38;;;-0.78;62.40
46223;BME280;31943;51.410;7.564;2023-02-28T03:39:42;101644.28;;;-0.75;62.63
46223;BME280;31943;51.410;7.564;2023-02-28T03:42:11;101644.63;;;-0.71;62.55
46223;BME280;31943;51.410;7.564;2023-02-28T03:44:41;101639.75;;;-0.68;62.66
46223;BME280;31943;51.410;7.564;2023-02-28T03:47:11;101641.66;;;-0.65;62.75
46223;BME280;31943;51.410;7.564;2023-02-28T03:49:40;101640.09;;;-0.63;62.76
46223;BME280;31943;51.410;7.564;2023-02-28T03:52:09;101641.53;;;-0.67;62.82
46223;BME280;31943;51.410;7.564;2023-02-28T03:54:40;101640.75;;;-0.66;62.77
46223;BME280;31943;51.410;7.564;2023-02-28T03:57:11;101647.16;;;-0.61;62.72
46223;BME280;31943;51.410;7.564;2023-02-28T03:59:43;101641.47;;;-0.56;62.77
46223;BME280;31943;51.410;7.564;2023-02-28T04:02:10;101639.94;;;-0.54;62.75
46223;BME280;31943;51.410;7.564;2023-02-28T04:04:36;101638.38;;;-0.52;62.75
46223;BME280;31943;51.410;7.564;2023-02-28T04:07:04;101641.69;;;-0.53;62.62
46223;BME280;31943;51.410;7.564;2023-02-28T04:09:31;101637.50;;;-0.53;62.61
46223;BME280;31943;51.410;7.564;2023-02-28T04:12:00;101643.66;;;-0.61;62.53
46223;BME280;31943;51.410;7.564;2023-02-28T04:14:26;101641.97;;;-0.72;62.35
46223;BME280;31943;51.410;7.564;2023-02-28T04:16:52;101640.72;;;-0.77;62.30
46223;BME280;31943;51.410;7.564;2023-02-28T04:19:19;101648.69;;;-0.85;62.19
46223;BME280;31943;51.410;7.564;2023-02-28T04:21:46;101646.66;;;-0.89;62.23
46223;BME280;31943;51.410;7.564;2023-02-28T04:24:17;101649.09;;;-0.90;62.08
46223;BME280;31943;51.410;7.564;2023-02-28T04:26:46;101654.00;;;-0.93;62.00
46223;BME280;31943;51.410;7.564;2023-02-28T04:29:23;101652.97;;;-0.95;61.91
46223;BME280;31943;51.410;7.564;2023-02-28T04:31:49;101651.09;;;-0.98;61.99
46223;BME280;31943;51.410;7.564;2023-02-28T04:34:15;101652.50;;;-1.02;62.02
46223;BME280;31943;51.410;7.564;2023-02-28T04:36:40;101653.13;;;-1.04;62.04
46223;BME280;31943;51.410;7.564;2023-02-28T04:39:08;101650.47;;;-1.06;62.09
46223;BME280;31943;51.410;7.564;2023-02-28T04:41:33;101656.34;;;-1.07;62.03
46223;BME280;31943;51.410;7.564;2023-02-28T04:43:59;101650.09;;;-1.10;62.11
46223;BME280;31943;51.410;7.564;2023-02-28T04:46:26;101650.63;;;-1.14;61.83
46223;BME280;31943;51.410;7.564;2023-02-28T04:48:52;101660.75;;;-1.16;61.74
46223;BME280;31943;51.410;7.564;2023-02-28T04:51:18;101662.19;;;-1.20;61.80
46223;BME280;31943;51.410;7.564;2023-02-28T04:53:44;101661.94;;;-1.23;61.63
46223;BME280;31943;51.410;7.564;2023-02-28T04:56:12;101659.78;;;-1.28;61.58
46223;BME280;31943;51.410;7.564;2023-02-28T04:58:38;101663.88;;;-1.30;61.46
46223;BME280;31943;51.410;7.564;2023-02-28T05:01:05;101657.75;;;-1.32;61.70
46223;BME280;31943;51.410;7.564;2023-02-28T05:03:33;101657.59;;;-1.34;61.26
46223;BME280;31943;51.410;7.564;2023-02-28T05:05:59;101660.81;;;-1.36;61.61
46223;BME280;31943;51.410;7.564;2023-02-28T05:08:24;101667.72;;;-1.35;61.55
46223;BME280;31943;51.410;7.564;2023-02-28T05:10:50;101665.94;;;-1.36;61.63
46223;BME280;31943;51.410;7.564;2023-02-28T05:13:16;101670.94;;;-1.38;61.51
46223;BME280;31943;51.410;7.564;2023-02-28T05:15:42;101663.91;;;-1.41;61.50
46223;BME280;31943;51.410;7.564;2023-02-28T05:18:08;101667.22;;;-1.42;61.63
46223;BME280;31943;51.410;7.564;2023-02-28T05:20:35;101668.78;;;-1.44;61.53
46223;BME280;31943;51.410;7.564;2023-02-28T05:23:01;101670.31;;;-1.46;61.63
46223;BME280;31943;51.410;7.564;2023-02-28T05:25:27;101677.88;;;-1.47;61.55
46223;BME280;31943;51.410;7.564;2023-02-28T05:27:53;101663.16;;;-1.50;61.60
46223;BME280;31943;51.410;7.564;2023-02-28T05:30:20;101668.94;;;-1.52;61.53
46223;BME280;31943;51.410;7.564;2023-02-28T05:32:50;101672.13;;;-1.55;61.45
46223;BME280;31943;51.410;7.564;2023-02-28T05:35:16;101670.09;;;-1.59;61.38
46223;BME280;31943;51.410;7.564;2023-02-28T05:37:44;101678.56;;;-1.60;61.17
46223;BME280;31943;51.410;7.564;2023-02-28T05:40:11;101674.97;;;-1.62;61.12
46223;BME280;31943;51.410;7.564;2023-02-28T05:42:37;101676.66;;;-1.63;61.27
46223;BME280;31943;51.410;7.564;2023-02-28T05:45:04;101677.13;;;-1.67;61.39
46223;BME280;31943;51.410;7.564;2023-02-28T05:47:32;101682.16;;;-1.68;61.35
46223;BME280;31943;51.410;7.564;2023-02-28T05:49:57;101684.59;;;-1.70;61.14
46223;BME280;31943;51.410;7.564;2023-02-28T05:52:23;101683.56;;;-1.72;61.23
46223;BME280;31943;51.410;7.564;2023-02-28T05:54:50;101679.84;;;-1.75;61.24
46223;BME280;31943;51.410;7.564;2023-02-28T05:57:16;101678.81;;;-1.77;61.08
46223;BME280;31943;51.410;7.564;2023-02-28T05:59:43;101679.59;;;-1.79;61.25
46223;BME280;31943;51.410;7.564;2023-02-28T06:02:11;101682.13;;;-1.79;61.28
46223;BME280;31943;51.410;7.564;2023-02-28T06:04:37;101684.69;;;-1.79;61.32
46223;BME280;31943;51.410;7.564;2023-02-28T06:07:04;101680.09;;;-1.83;61.12
46223;BME280;31943;51.410;7.564;2023-02-28T06:09:31;101693.03;;;-1.81;61.34
46223;BME280;31943;51.410;7.564;2023-02-28T06:12:09;101687.78;;;-1.83;61.37
46223;BME280;31943;51.410;7.564;2023-02-28T06:14:35;101691.13;;;-1.84;61.21
46223;BME280;31943;51.410;7.564;2023-02-28T06:17:01;101688.56;;;-1.84;61.44
46223;BME280;31943;51.410;7.564;2023-02-28T06:19:29;101703.03;;;-1.84;61.62
46223;BME280;31943;51.410;7.564;2023-02-28T06:21:56;101703.78;;;-1.85;61.27
46223;BME280;31943;51.410;7.564;2023-02-28T06:24:24;101706.06;;;-1.88;61.17
46223;BME280;31943;51.410;7.564;2023-02-28T06:26:53;101710.31;;;-1.89;61.03
46223;BME280;31943;51.410;7.564;2023-02-28T06:29:22;101704.94;;;-1.92;61.21
46223;BME280;31943;51.410;7.564;2023-02-28T06:31:48;101710.06;;;-1.92;61.04
46223;BME280;31943;51.410;7.564;2023-02-28T06:34:17;101717.59;;;-1.93;61.00
46223;BME280;31943;51.410;7.564;2023-02-28T06:36:46;101713.13;;;-1.96;60.87
46223;BME280;31943;51.410;7.564;2023-02-28T06:39:12;101718.34;;;-1.94;61.13
46223;BME280;31943;51.410;7.564;2023-02-28T06:41:44;101710.94;;;-1.91;61.03
46223;BME280;31943;51.410;7.564;2023-02-28T06:44:10;101712.22;;;-1.86;61.15
46223;BME280;31943;51.410;7.564;2023-02-28T06:46:40;101719.28;;;-1.84;61.24
46223;BME280;31943;51.410;7.564;2023-02-28T06:49:09;101726.16;;;-1.83;61.21
46223;BME280;31943;51.410;7.564;2023-02-28T06:51:37;101724.75;;;-1.79;61.22
46223;BME280;31943;51.410;7.564;2023-02-28T06:54:03;101717.34;;;-1.76;61.38
46223;BME280;31943;51.410;7.564;2023-02-28T06:56:32;101708.88;;;-1.75;61.45
46223;BME280;31943;51.410;7.564;2023-02-28T06:59:05;101720.03;;;-1.74;61.54
46223;BME280;31943;51.410;7.564;2023-02-28T07:01:31;101716.84;;;-1.72;61.61
46223;BME280;31943;51.410;7.564;2023-02-28T07:04:02;101718.59;;;-1.71;61.48
46223;BME280;31943;51.410;7.564;2023-02-28T07:06:29;101719.53;;;-1.70;61.54
46223;BME280;31943;51.410;7.564;2023-02-28T07:08:58;101723.19;;;-1.67;61.55
46223;BME280;31943;51.410;7.564;2023-02-28T07:11:26;101727.56;;;-1.66;61.40
46223;BME280;31943;51.410;7.564;2023-02-28T07:13:52;101731.16;;;-1.64;61.56
46223;BME280;31943;51.410;7.564;2023-02-28T07:16:18;101731.41;;;-1.61;61.65
46223;BME280;31943;51.410;7.564;2023-02-28T07:18:51;101733.31;;;-1.58;61.77
46223;BME280;31943;51.410;7.564;2023-02-28T07:21:19;101734.47;;;-1.54;61.58
46223;BME280;31943;51.410;7.564;2023-02-28T07:23:45;101735.13;;;-1.47;61.85
46223;BME280;31943;51.410;7.564;2023-02-28T07:26:13;101741.09;;;-1.36;61.52
46223;BME280;31943;51.410;7.564;2023-02-28T07:28:40;101737.38;;;-1.29;61.74
46223;BME280;31943;51.410;7.564;2023-02-28T07:31:07;101740.06;;;-1.17;61.75
46223;BME280;31943;51.410;7.564;2023-02-28T07:33:33;101740.91;;;-1.07;62.01
46223;BME280;31943;51.410;7.564;2023-02-28T07:36:04;101741.25;;;-1.02;61.63
46223;BME280;31943;51.410;7.564;2023-02-28T07:38:34;101745.88;;;-0.98;61.98
46223;BME280;31943;51.410;7.564;2023-02-28T07:41:09;101740.31;;;-0.92;62.09
46223;BME280;31943;51.410;7.564;2023-02-28T07:43:37;101745.06;;;-0.87;61.93
46223;BME280;31943;51.410;7.564;2023-02-28T07:46:07;101733.88;;;-0.77;61.94
46223;BME280;31943;51.410;7.564;2023-02-28T07:48:33;101736.28;;;-0.68;61.76
46223;BME280;31943;51.410;7.564;2023-02-28T07:50:59;101732.38;;;-0.63;61.68
46223;BME280;31943;51.410;7.564;2023-02-28T07:53:25;101740.16;;;-0.51;61.54
46223;BME280;31943;51.410;7.564;2023-02-28T07:55:54;101734.88;;;-0.43;61.45
46223;BME280;31943;51.410;7.564;2023-02-28T07:58:22;101732.91;;;-0.35;61.08
46223;BME280;31943;51.410;7.564;2023-02-28T08:00:52;101741.94;;;-0.28;60.93
46223;BME280;31943;51.410;7.564;2023-02-28T08:03:21;101739.72;;;-0.24;60.97
46223;BME280;31943;51.410;7.564;2023-02-28T08:05:48;101744.34;;;-0.19;61.07
46223;BME280;31943;51.410;7.564;2023-02-28T08:08:45;101744.44;;;-0.18;60.92
46223;BME280;31943;51.410;7.564;2023-02-28T08:11:18;101745.38;;;-0.17;60.85
46223;BME280;31943;51.410;7.564;2023-02-28T08:13:44;101744.69;;;-0.15;60.97
46223;BME280;31943;51.410;7.564;2023-02-28T08:16:12;101751.19;;;-0.08;60.82
46223;BME280;31943;51.410;7.564;2023-02-28T08:18:38;101748.75;;;-0.07;60.67
46223;BME280;31943;51.410;7.564;2023-02-28T08:21:10;101745.28;;;-0.07;60.99
46223;BME280;31943;51.410;7.564;2023-02-28T08:23:37;101746.28;;;-0.05;60.92
46223;BME280;31943;51.410;7.564;2023-02-28T08:26:07;101740.75;;;0.01;60.97
46223;BME280;31943;51.410;7.564;2023-02-28T08:28:50;101743.47;;;0.14;61.10
46223;BME280;31943;51.410;7.564;2023-02-28T08:31:16;101742.81;;;0.16;61.22
46223;BME280;31943;51.410;7.564;2023-02-28T08:33:43;101739.44;;;0.17;61.41
46223;BME280;31943;51.410;7.564;2023-02-28T08:36:15;101745.69;;;0.21;61.26
46223;BME280;31943;51.410;7.564;2023-02-28T08:38:49;101751.97;;;0.25;61.02
46223;BME280;31943;51.410;7.564;2023-02-28T08:41:15;101750.97;;;0.23;60.89
46223;BME280;31943;51.410;7.564;2023-02-28T08:43:42;101758.88;;;0.14;61.14
46223;BME280;31943;51.410;7.564;2023-02-28T08:46:14;101761.44;;;0.14;61.11
46223;BME280;31943;51.410;7.564;2023-02-28T08:48:54;101747.13;;;0.17;61.42
46223;BME280;31943;51.410;7.564;2023-02-28T08:51:21;101749.94;;;0.21;61.69
46223;BME280;31943;51.410;7.564;2023-02-28T08:53:47;101746.84;;;0.25;61.13
46223;BME280;31943;51.410;7.564;2023-02-28T08:56:31;101742.94;;;0.30;61.16
46223;BME280;31943;51.410;7.564;2023-02-28T08:58:59;101745.72;;;0.33;60.98
46223;BME280;31943;51.410;7.564;2023-02-28T09:01:33;101752.44;;;0.43;60.96
46223;BME280;31943;51.410;7.564;2023-02-28T09:04:01;101745.56;;;0.53;60.80
46223;BME280;31943;51.410;7.564;2023-02-28T09:06:27;101741.09;;;0.63;60.47
46223;BME280;31943;51.410;7.564;2023-02-28T09:08:59;101740.78;;;0.70;60.07
46223;BME280;31943;51.410;7.564;2023-02-28T09:11:29;101746.59;;;0.79;60.00
46223;BME280;31943;51.410;7.564;2023-02-28T09:13:55;101747.81;;;0.84;59.88
46223;BME280;31943;51.410;7.564;2023-02-28T09:16:21;101755.31;;;0.93;59.86
46223;BME280;31943;51.410;7.564;2023-02-28T09:18:48;101743.00;;;1.01;59.19
46223;BME280;31943;51.410;7.564;2023-02-28T09:21:16;101749.38;;;1.06;59.05
46223;BME280;31943;51.410;7.564;2023-02-28T09:23:43;101747.72;;;1.06;58.79
46223;BME280;31943;51.410;7.564;2023-02-28T09:26:13;101747.16;;;1.10;58.67
46223;BME280;31943;51.410;7.564;2023-02-28T09:28:40;101747.78;;;1.08;58.51
46223;BME280;31943;51.410;7.564;2023-02-28T09:31:06;101739.31;;;1.09;58.26
46223;BME280;31943;51.410;7.564;2023-02-28T09:33:32;101738.19;;;1.17;57.96
46223;BME280;31943;51.410;7.564;2023-02-28T09:36:00;101747.34;;;1.25;57.72
46223;BME280;31943;51.410;7.564;2023-02-28T09:38:28;101748.56;;;1.30;57.50
46223;BME280;31943;51.410;7.564;2023-02-28T09:40:58;101749.44;;;1.43;57.73
46223;BME280;31943;51.410;7.564;2023-02-28T09:43:28;101738.53;;;1.58;57.41
46223;BME280;31943;51.410;7.564;2023-02-28T09:45:59;101746.34;;;1.72;56.76
46223;BME280;31943;51.410;7.564;2023-02-28T09:48:29;101743.13;;;1.88;56.53
46223;BME280;31943;51.410;7.564;2023-02-28T09:51:14;101738.28;;;2.17;56.25
46223;BME280;31943;51.410;7.564;2023-02-28T09:53:45;101731.78;;;2.23;54.92
46223;BME280;31943;51.410;7.564;2023-02-28T09:56:15;101737.69;;;2.33;55.08
46223;BME280;31943;51.410;7.564;2023-02-28T09:58:50;101735.97;;;2.34;54.82
46223;BME280;31943;51.410;7.564;2023-02-28T10:01:23;101740.50;;;2.25;53.63
46223;BME280;31943;51.410;7.564;2023-02-28T10:03:56;101743.66;;;2.21;53.90
46223;BME280;31943;51.410;7.564;2023-02-28T10:06:36;101742.66;;;2.18;53.94
46223;BME280;31943;51.410;7.564;2023-02-28T10:09:10;101733.66;;;2.25;53.99
46223;BME280;31943;51.410;7.564;2023-02-28T10:11:38;101726.59;;;2.48;53.07
46223;BME280;31943;51.410;7.564;2023-02-28T10:14:13;101730.28;;;2.51;52.80
46223;BME280;31943;51.410;7.564;2023-02-28T10:16:43;101728.88;;;2.56;52.71
46223;BME280;31943;51.410;7.564;2023-02-28T10:19:16;101719.06;;;2.64;52.26
46223;BME280;31943;51.410;7.564;2023-02-28T10:21:51;101712.66;;;2.71;51.83
46223;BME280;31943;51.410;7.564;2023-02-28T10:24:28;101717.09;;;2.73;51.83
46223;BME280;31943;51.410;7.564;2023-02-28T10:27:00;101712.66;;;2.71;51.42
46223;BME280;31943;51.410;7.564;2023-02-28T10:29:26;101703.50;;;2.76;52.00
46223;BME280;31943;51.410;7.564;2023-02-28T10:31:52;101706.97;;;2.90;51.88
46223;BME280;31943;51.410;7.564;2023-02-28T10:34:20;101709.28;;;2.99;51.62
46223;BME280;31943;51.410;7.564;2023-02-28T10:36:49;101705.09;;;3.01;51.41
46223;BME280;31943;51.410;7.564;2023-02-28T10:39:38;101700.22;;;3.05;50.75
46223;BME280;31943;51.410;7.564;2023-02-28T10:42:20;101699.94;;;3.01;50.92
46223;BME280;31943;51.410;7.564;2023-02-28T10:44:46;101697.53;;;3.17;50.45
46223;BME280;31943;51.410;7.564;2023-02-28T10:47:14;101688.00;;;3.58;49.68
46223;BME280;31943;51.410;7.564;2023-02-28T10:49:47;101690.16;;;3.93;48.61
46223;BME280;31943;51.410;7.564;2023-02-28T10:52:32;101690.88;;;4.35;47.95
46223;BME280;31943;51.410;7.564;2023-02-28T10:55:15;101678.66;;;4.62;47.34
46223;BME280;31943;51.410;7.564;2023-02-28T10:57:41;101682.66;;;4.87;46.51
46223;BME280;31943;51.410;7.564;2023-02-28T11:00:14;101682.06;;;5.07;44.85
46223;BME280;31943;51.410;7.564;2023-02-28T11:02:41;101670.31;;;4.98;44.94
46223;BME280;31943;51.410;7.564;2023-02-28T11:05:28;101677.22;;;4.82;44.33
46223;BME280;31943;51.410;7.564;2023-02-28T11:08:02;101674.66;;;4.82;44.73
46223;BME280;31943;51.410;7.564;2023-02-28T11:10:32;101674.69;;;4.99;43.97
46223;BME280;31943;51.410;7.564;2023-02-28T11:12:58;101673.06;;;5.01;43.05
46223;BME280;31943;51.410;7.564;2023-02-28T11:15:26;101685.47;;;5.06;42.18
46223;BME280;31943;51.410;7.564;2023-02-28T11:17:54;101680.44;;;5.09;42.40
46223;BME280;31943;51.410;7.564;2023-02-28T11:20:23;101665.22;;;4.99;41.98
46223;BME280;31943;51.410;7.564;2023-02-28T11:22:51;101679.84;;;4.99;41.99
46223;BME280;31943;51.410;7.564;2023-02-28T11:25:23;101668.63;;;4.98;42.10
46223;BME280;31943;51.410;7.564;2023-02-28T11:27:54;101671.88;;;5.10;42.64
46223;BME280;31943;51.410;7.564;2023-02-28T11:30:40;101676.09;;;5.25;42.21
46223;BME280;31943;51.410;7.564;2023-02-28T11:33:22;101660.00;;;5.14;42.03
46223;BME280;31943;51.410;7.564;2023-02-28T11:35:48;101662.41;;;5.11;42.00
46223;BME280;31943;51.410;7.564;2023-02-28T11:38:15;101657.88;;;5.07;42.05
46223;BME280;31943;51.410;7.564;2023-02-28T11:40:52;101660.50;;;4.92;42.00
46223;BME280;31943;51.410;7.564;2023-02-28T11:43:34;101660.16;;;4.86;43.04
46223;BME280;31943;51.410;7.564;2023-02-28T11:46:14;101665.88;;;5.11;42.57
46223;BME280;31943;51.410;7.564;2023-02-28T11:48:54;101661.44;;;5.09;42.47
46223;BME280;31943;51.410;7.564;2023-02-28T11:51:28;101663.06;;;5.23;42.06
46223;BME280;31943;51.410;7.564;2023-02-28T11:54:24;101649.84;;;5.33;42.28
46223;BME280;31943;51.410;7.564;2023-02-28T11:56:57;101643.59;;;5.46;42.20
46223;BME280;31943;51.410;7.564;2023-02-28T11:59:38;101650.53;;;5.31;42.78
46223;BME280;31943;51.410;7.564;2023-02-28T12:02:24;101650.16;;;5.40;43.18
46223;BME280;31943;51.410;7.564;2023-02-28T12:04:55;101645.13;;;5.43;41.67
46223;BME280;31943;51.410;7.564;2023-02-28T12:07:31;101642.91;;;5.49;41.78
46223;BME280;31943;51.410;7.564;2023-02-28T12:10:06;101644.09;;;5.55;41.43
46223;BME280;31943;51.410;7.564;2023-02-28T12:12:49;101638.84;;;5.70;41.74
46223;BME280;31943;51.410;7.564;2023-02-28T12:15:32;101637.63;;;5.64;41.62
46223;BME280;31943;51.410;7.564;2023-02-28T12:18:23;101644.66;;;5.83;41.52
46223;BME280;31943;51.410;7.564;2023-02-28T12:20:54;101641.09;;;5.81;40.63
46223;BME280;31943;51.410;7.564;2023-02-28T12:23:43;101629.75;;;5.95;41.38
46223;BME280;31943;51.410;7.564;2023-02-28T12:26:16;101630.94;;;6.02;41.82
46223;BME280;31943;51.410;7.564;2023-02-28T12:28:53;101631.44;;;6.11;41.71
46223;BME280;31943;51.410;7.564;2023-02-28T12:31:27;101623.72;;;6.12;41.21
46223;BME280;31943;51.410;7.564;2023-02-28T12:33:59;101622.56;;;6.24;41.19
46223;BME280;31943;51.410;7.564;2023-02-28T12:36:26;101622.88;;;6.30;40.78
46223;BME280;31943;51.410;7.564;2023-02-28T12:38:54;101615.69;;;6.24;39.92
46223;BME280;31943;51.410;7.564;2023-02-28T12:41:27;101613.47;;;6.32;40.36
46223;BME280;31943;51.410;7.564;2023-02-28T12:44:01;101615.28;;;6.17;40.91
46223;BME280;31943;51.410;7.564;2023-02-28T12:46:32;101610.56;;;6.08;40.99
46223;BME280;31943;51.410;7.564;2023-02-28T12:49:04;101592.63;;;6.12;39.88
46223;BME280;31943;51.410;7.564;2023-02-28T12:51:30;101594.25;;;6.10;40.24
46223;BME280;31943;51.410;7.564;2023-02-28T12:54:04;101586.56;;;6.30;40.90
46223;BME280;31943;51.410;7.564;2023-02-28T12:56:39;101589.00;;;6.27;41.36
46223;BME280;31943;51.410;7.564;2023-02-28T12:59:17;101584.78;;;6.29;41.59
46223;BME280;31943;51.410;7.564;2023-02-28T13:11:10;101563.56;;;6.73;40.51
46223;BME280;31943;51.410;7.564;2023-02-28T13:13:57;101556.66;;;6.74;40.31
46223;BME280;31943;51.410;7.564;2023-02-28T13:16:51;101569.91;;;6.61;39.32
46223;BME280;31943;51.410;7.564;2023-02-28T13:19:20;101559.88;;;6.50;39.21
46223;BME280;31943;51.410;7.564;2023-02-28T13:21:47;101554.19;;;6.58;39.78
46223;BME280;31943;51.410;7.564;2023-02-28T13:24:36;101554.38;;;6.62;40.43